Time;durP1;ratioP1;P1;durP2;ratioP2;P2;SDS_P1;SDS_P2;PMS_P1;PMS_P2;Temp;Humidity;BMP_temperature;BMP_pressure;BME280_temperature;BME280_humidity;BME280_pressure;Samples;Min_cycle;Max_cycle;Signal;HPM_P1;HPM_P2
2023/05/23 00:03:01;;;;;;;13.45;7.10;;;22.50;71.80;;;;;;10531176;28;20129;-24
2023/05/23 00:08:03;;;;;;;14.82;6.60;;;22.50;78.60;;;;;;10532405;28;20043;-23
2023/05/23 00:13:08;;;;;;;;;;;22.80;79.20;;;;;;10535200;28;20079;-24
2023/05/23 00:18:10;;;;;;;19.45;7.18;;;23.70;73.30;;;;;;10530495;28;19967;-24
2023/05/23 00:23:17;;;;;;;14.30;6.82;;;22.10;79.10;;;;;;10533253;28;20058;-24
2023/05/23 00:28:21;;;;;;;14.13;6.10;;;23.10;67.90;;;;;;10515156;28;20048;-24
2023/05/23 00:33:23;;;;;;;12.05;6.50;;;22.70;67.20;;;;;;10525350;28;20071;-24
2023/05/23 00:38:25;;;;;;;;;;;23.10;76.90;;;;;;10521190;28;20076;-24
2023/05/23 00:43:28;;;;;;;;;;;23.10;71.20;;;;;;10530791;28;19926;-24
2023/05/23 00:48:30;;;;;;;14.90;7.15;;;23.10;73.40;;;;;;10539626;28;20416;-24
2023/05/23 00:53:33;;;;;;;16.50;7.35;;;23.50;71.40;;;;;;10526381;28;20130;-25
2023/05/23 00:58:36;;;;;;;16.45;7.60;;;23.20;73.70;;;;;;10528118;28;20072;-24
2023/05/23 01:03:38;;;;;;;18.27;6.75;;;24.20;68.20;;;;;;10528096;28;20060;-23
2023/05/23 01:08:41;;;;;;;11.00;6.15;;;22.50;66.90;;;;;;10511799;28;20132;-23
2023/05/23 01:13:51;;;;;;;15.48;6.22;;;23.20;73.00;;;;;;10523940;28;20059;-29
2023/05/23 01:19:02;;;;;;;9.27;5.53;;;22.30;79.00;;;;;;10528465;28;20281;-24
2023/05/23 01:24:36;;;;;;;10.32;5.10;;;22.60;73.90;;;;;;10530227;28;20180;-23
2023/05/23 01:29:44;;;;;;;12.05;5.32;;;22.40;76.30;;;;;;10525759;28;20093;-25
2023/05/23 01:34:47;;;;;;;12.35;5.45;;;23.00;71.90;;;;;;10522178;28;20047;-24
2023/05/23 01:39:49;;;;;;;11.32;5.35;;;22.70;71.50;;;;;;10528030;28;20048;-23
2023/05/23 01:44:52;;;;;;;;;;;23.50;69.90;;;;;;10535552;28;20075;-23
2023/05/23 01:49:55;;;;;;;19.27;5.80;;;23.40;64.20;;;;;;10517337;28;19924;-24
2023/05/23 01:54:58;;;;;;;10.25;4.70;;;22.80;70.00;;;;;;10520885;28;20050;-24
2023/05/23 02:00:01;;;;;;;15.27;5.13;;;22.50;74.90;;;;;;10523418;28;20054;-24
2023/05/23 02:05:03;;;;;;;8.77;4.75;;;21.30;78.50;;;;;;10530200;28;20105;-24
2023/05/23 02:10:07;;;;;;;8.82;5.70;;;23.20;70.90;;;;;;10535556;28;20047;-23
2023/05/23 02:15:11;;;;;;;20.63;5.20;;;22.80;74.10;;;;;;10538250;28;20052;-24
2023/05/23 02:20:13;;;;;;;12.25;4.85;;;22.40;69.10;;;;;;10531929;28;20147;-24
2023/05/23 02:25:15;;;;;;;14.27;5.07;;;21.90;68.10;;;;;;10532471;28;20619;-24
2023/05/23 02:30:18;;;;;;;12.02;4.00;;;23.00;68.20;;;;;;10522302;28;20477;-24
2023/05/23 02:35:20;;;;;;;12.77;4.28;;;22.30;74.70;;;;;;10521167;28;20114;-24
2023/05/23 02:40:22;;;;;;;;;;;20.60;82.40;;;;;;10544751;28;20051;-24
2023/05/23 02:45:25;;;;;;;9.23;4.00;;;22.00;76.40;;;;;;10533801;28;19963;-25
2023/05/23 02:50:27;;;;;;;8.98;3.67;;;21.90;79.00;;;;;;10527768;28;20135;-25
2023/05/23 02:55:30;;;;;;;13.80;4.22;;;22.00;77.50;;;;;;10532403;28;20492;-25
2023/05/23 03:15:29;;;;;;;7.22;3.33;;;20.50;83.60;;;;;;10503787;27;20124;-22
2023/05/23 03:20:31;;;;;;;8.57;3.40;;;22.20;72.00;;;;;;10485206;28;20068;-23
2023/05/23 03:25:33;;;;;;;6.65;3.63;;;21.80;68.30;;;;;;10481068;28;20094;-23
2023/05/23 03:30:36;;;;;;;6.80;3.35;;;21.60;69.10;;;;;;10488878;28;20374;-23
2023/05/23 03:35:38;;;;;;;7.90;3.67;;;21.70;71.30;;;;;;10482330;28;20133;-23
2023/05/23 03:40:40;;;;;;;7.25;3.03;;;22.60;71.60;;;;;;10476404;28;20136;-23
2023/05/23 03:45:43;;;;;;;7.97;3.08;;;21.20;79.30;;;;;;10496190;28;20109;-23
2023/05/23 03:50:45;;;;;;;5.88;3.08;;;22.10;72.90;;;;;;10483886;28;20110;-23
2023/05/23 03:55:46;;;;;;;8.50;3.40;;;22.60;69.90;;;;;;10477838;28;20486;-23
2023/05/23 04:00:51;;;;;;;10.65;3.65;;;22.00;72.90;;;;;;10474847;28;20554;-23
2023/05/23 04:05:53;;;;;;;11.07;3.70;;;21.00;68.60;;;;;;10467307;28;20046;-24
2023/05/23 04:10:55;;;;;;;8.48;3.85;;;20.10;84.30;;;;;;10469767;28;20143;-24
2023/05/23 04:16:04;;;;;;;10.25;4.20;;;20.90;83.40;;;;;;10463644;28;20041;-23
2023/05/23 04:21:06;;;;;;;11.15;4.05;;;20.40;65.00;;;;;;10467732;28;20442;-24
2023/05/23 04:26:08;;;;;;;12.55;3.72;;;21.30;75.60;;;;;;10455772;28;20090;-24
2023/05/23 04:31:12;;;;;;;9.43;3.78;;;21.40;77.00;;;;;;10460064;28;20069;-24
2023/05/23 04:36:14;;;;;;;14.70;4.32;;;20.80;75.80;;;;;;10442575;28;20047;-24
2023/05/23 04:41:16;;;;;;;7.47;3.50;;;20.00;71.40;;;;;;10450907;28;20059;-24
2023/05/23 04:46:21;;;;;;;17.75;5.53;;;21.20;60.40;;;;;;10445445;28;20041;-24
2023/05/23 04:51:23;;;;;;;7.57;3.03;;;19.20;77.80;;;;;;10460216;28;20057;-24
2023/05/23 04:56:27;;;;;;;6.95;2.92;;;20.90;75.90;;;;;;10461719;28;20057;-24
2023/05/23 05:01:30;;;;;;;9.52;3.20;;;21.60;76.30;;;;;;10449301;28;20110;-24
2023/05/23 05:06:32;;;;;;;7.45;2.88;;;21.50;67.10;;;;;;10445625;28;20053;-24
2023/05/23 05:11:33;;;;;;;5.65;2.50;;;22.40;62.20;;;;;;10439414;28;20143;-24
2023/05/23 05:16:37;;;;;;;8.98;3.22;;;22.00;70.60;;;;;;10447910;28;20064;-24
2023/05/23 05:21:38;;;;;;;8.93;3.72;;;21.10;70.20;;;;;;10453404;28;20047;-24
2023/05/23 05:26:41;;;;;;;6.97;3.55;;;21.20;76.30;;;;;;10448825;28;20055;-22
2023/05/23 05:31:44;;;;;;;5.68;2.78;;;21.20;70.90;;;;;;10458674;28;20064;-24
2023/05/23 05:36:46;;;;;;;4.72;3.00;;;20.90;77.40;;;;;;10439222;28;20059;-24
2023/05/23 05:41:48;;;;;;;7.75;3.20;;;21.80;67.60;;;;;;10441768;28;20045;-23
2023/05/23 05:46:51;;;;;;;9.60;2.45;;;21.60;69.30;;;;;;10457398;28;20132;-22
2023/05/23 05:51:54;;;;;;;6.35;2.63;;;19.90;81.30;;;;;;10446090;28;20144;-24
2023/05/23 05:56:57;;;;;;;7.63;2.55;;;19.20;89.90;;;;;;10438598;28;20131;-23
2023/05/23 06:02:00;;;;;;;6.57;2.25;;;19.20;86.00;;;;;;10450251;28;20183;-22
2023/05/23 06:07:02;;;;;;;5.50;2.55;;;20.50;78.90;;;;;;10446473;28;20537;-23
2023/05/23 06:12:04;;;;;;;5.68;2.58;;;20.50;72.10;;;;;;10450312;28;20059;-23
2023/05/23 06:17:07;;;;;;;6.80;2.65;;;20.60;80.10;;;;;;10436603;28;20067;-23
2023/05/23 06:22:09;;;;;;;7.35;2.90;;;21.10;77.30;;;;;;10445487;28;20500;-23
2023/05/23 06:27:11;;;;;;;7.57;2.08;;;19.80;72.20;;;;;;10450916;28;20136;-25
2023/05/23 06:32:14;;;;;;;5.97;2.22;;;19.20;79.80;;;;;;10448221;28;20053;-24
2023/05/23 06:37:16;;;;;;;8.70;2.83;;;20.30;79.20;;;;;;10449149;28;20052;-23
2023/05/23 06:42:18;;;;;;;;;;;20.80;72.30;;;;;;10442263;28;20048;-23
2023/05/23 06:47:22;;;;;;;6.88;2.75;;;21.10;76.30;;;;;;10445720;28;19952;-23
2023/05/23 06:52:23;;;;;;;7.22;2.28;;;21.90;69.00;;;;;;10438517;28;20459;-22
2023/05/23 06:57:25;;;;;;;12.52;2.92;;;20.20;68.90;;;;;;10435607;28;20041;-23
2023/05/23 07:02:28;;;;;;;6.97;1.88;;;20.00;67.80;;;;;;10439601;28;20068;-24
2023/05/23 07:07:30;;;;;;;6.15;2.40;;;21.70;72.60;;;;;;10449173;28;20456;-24
2023/05/23 07:12:32;;;;;;;13.07;2.75;;;22.50;65.80;;;;;;10445205;28;20503;-23
2023/05/23 07:17:35;;;;;;;11.18;2.40;;;20.50;71.30;;;;;;10446938;28;20122;-24
2023/05/23 07:22:37;;;;;;;14.43;2.38;;;21.20;73.50;;;;;;10449404;28;20080;-23
2023/05/23 07:27:39;;;;;;;8.38;1.67;;;19.90;73.60;;;;;;10444739;28;20037;-24
2023/05/23 07:32:42;;;;;;;18.40;2.47;;;22.10;62.30;;;;;;10433450;28;20132;-23
2023/05/23 07:37:44;;;;;;;16.67;2.85;;;21.30;68.20;;;;;;10433530;28;20053;-24
2023/05/23 07:42:46;;;;;;;5.80;1.90;;;19.70;67.80;;;;;;10452729;28;20053;-24
2023/05/23 07:47:49;;;;;;;14.10;2.10;;;21.50;70.90;;;;;;10447911;28;20144;-24
2023/05/23 07:52:51;;;;;;;11.45;2.35;;;22.50;63.90;;;;;;10440254;28;20098;-23
2023/05/23 07:57:53;;;;;;;9.40;2.30;;;21.10;62.10;;;;;;10454134;28;20048;-24
2023/05/23 08:02:57;;;;;;;14.40;2.72;;;21.90;67.00;;;;;;10451709;28;20052;-24
2023/05/23 08:07:58;;;;;;;4.30;1.65;;;21.30;66.50;;;;;;10452719;28;20128;-25
2023/05/23 08:13:05;;;;;;;11.77;2.70;;;22.10;66.00;;;;;;10457247;28;20106;-24
2023/05/23 08:18:08;;;;;;;14.82;4.32;;;20.40;74.10;;;;;;10450140;28;20500;-23
2023/05/23 08:23:11;;;;;;;15.50;2.55;;;20.70;64.20;;;;;;10455886;28;20083;-24
2023/05/23 08:28:13;;;;;;;6.75;2.47;;;22.30;62.40;;;;;;10436782;28;20094;-24
2023/05/23 08:33:16;;;;;;;16.25;3.00;;;21.60;63.60;;;;;;10449797;28;20052;-24
2023/05/23 08:38:20;;;;;;;9.80;2.13;;;20.00;71.70;;;;;;10450414;28;20465;-25
2023/05/23 08:43:22;;;;;;;11.35;2.60;;;22.10;65.20;;;;;;10453681;28;20152;-25
2023/05/23 08:48:27;;;;;;;10.35;1.92;;;21.90;58.40;;;;;;10448902;28;20132;-23
2023/05/23 08:53:31;;;;;;;8.70;2.17;;;22.70;62.70;;;;;;10441586;28;20049;-25
2023/05/23 08:58:35;;;;;;;12.57;3.00;;;22.10;61.10;;;;;;10455339;28;20044;-24
2023/05/23 09:03:38;;;;;;;14.90;2.33;;;21.10;58.50;;;;;;10443802;28;20136;-27
2023/05/23 09:08:41;;;;;;;8.45;1.77;;;20.80;58.60;;;;;;10445602;28;20041;-23
2023/05/23 09:13:43;;;;;;;10.27;2.40;;;22.10;65.10;;;;;;10452444;28;20839;-24
2023/05/23 09:18:47;;;;;;;13.02;2.10;;;20.60;70.20;;;;;;10455026;28;20041;-25
2023/05/23 09:23:49;;;;;;;7.18;2.05;;;21.20;59.90;;;;;;10458110;28;20417;-24
2023/05/23 09:28:50;;;;;;;;;;;22.30;60.00;;;;;;10451877;28;20474;-24
2023/05/23 09:33:53;;;;;;;9.10;2.50;;;21.80;63.20;;;;;;10464557;28;20243;-24
2023/05/23 09:38:55;;;;;;;12.18;2.35;;;22.10;63.60;;;;;;10452866;28;20053;-24
2023/05/23 09:43:57;;;;;;;;;;;21.70;63.30;;;;;;10463334;28;20083;-25
2023/05/23 09:49:00;;;;;;;6.40;2.10;;;21.90;64.60;;;;;;10450308;28;20345;-24
2023/05/23 09:54:02;;;;;;;11.35;2.45;;;22.80;61.90;;;;;;10449567;28;20139;-24
2023/05/23 09:59:07;;;;;;;11.05;2.50;;;21.90;64.30;;;;;;10442721;28;20090;-24
2023/05/23 10:04:12;;;;;;;10.63;2.33;;;22.20;62.60;;;;;;10450042;28;20049;-24
2023/05/23 10:09:17;;;;;;;8.68;2.25;;;21.80;63.50;;;;;;10458224;28;20127;-25
2023/05/23 10:14:19;;;;;;;7.47;1.80;;;20.60;61.50;;;;;;10455500;28;20081;-25
2023/05/23 10:19:25;;;;;;;10.63;2.20;;;21.70;64.70;;;;;;10456427;28;20045;-22
2023/05/23 10:24:28;;;;;;;17.15;3.67;;;21.90;61.50;;;;;;10437207;28;20060;-24
2023/05/23 10:29:32;;;;;;;13.88;2.05;;;22.20;60.40;;;;;;10435123;28;20140;-24
2023/05/23 10:34:41;;;;;;;10.30;2.17;;;22.50;57.70;;;;;;10444201;28;20045;-24
2023/05/23 10:39:54;;;;;;;9.00;2.13;;;21.40;62.50;;;;;;10441195;28;20048;-24
2023/05/23 10:45:14;;;;;;;9.05;2.45;;;21.70;64.10;;;;;;10458143;28;20076;-24
2023/05/23 10:50:32;;;;;;;7.75;2.17;;;22.40;62.70;;;;;;10464358;28;20481;-24
2023/05/23 10:55:36;;;;;;;14.02;2.85;;;23.50;58.30;;;;;;10460639;28;20055;-24
2023/05/23 11:00:37;;;;;;;8.10;2.70;;;22.60;59.30;;;;;;10448059;28;20045;-24
2023/05/23 11:05:52;;;;;;;4.70;1.92;;;22.40;60.60;;;;;;10453286;28;20111;-24
2023/05/23 11:10:55;;;;;;;8.05;1.98;;;23.20;57.60;;;;;;10447536;28;20144;-24
2023/05/23 11:15:57;;;;;;;7.15;1.98;;;21.50;56.60;;;;;;10453004;28;20052;-24
2023/05/23 11:21:01;;;;;;;13.52;2.53;;;22.80;59.70;;;;;;10449035;28;20124;-25
2023/05/23 11:26:03;;;;;;;4.82;1.90;;;22.10;55.30;;;;;;10456304;28;20134;-24
2023/05/23 11:31:05;;;;;;;8.68;2.25;;;22.60;60.70;;;;;;10443189;28;20128;-24
2023/05/23 11:36:09;;;;;;;11.90;2.22;;;22.60;55.40;;;;;;10453868;28;20128;-24
2023/05/23 11:41:11;;;;;;;5.63;1.70;;;22.30;55.20;;;;;;10447314;28;20156;-24
2023/05/23 11:46:13;;;;;;;9.57;1.67;;;23.00;58.10;;;;;;10452435;28;20076;-25
2023/05/23 11:51:18;;;;;;;12.88;2.58;;;21.80;57.10;;;;;;10442509;28;20076;-24
2023/05/23 11:56:21;;;;;;;11.25;1.75;;;21.30;56.10;;;;;;10448508;28;20125;-24
2023/05/23 12:01:30;;;;;;;14.30;3.40;;;22.70;58.50;;;;;;10450891;28;20049;-24
2023/05/23 12:06:33;;;;;;;20.33;3.22;;;21.40;57.60;;;;;;10455941;28;20569;-24
2023/05/23 12:11:35;;;;;;;14.00;2.53;;;22.20;59.00;;;;;;10449663;28;20857;-22
2023/05/23 12:16:37;;;;;;;8.18;1.90;;;23.50;54.40;;;;;;10456321;28;20061;-24
2023/05/23 12:21:45;;;;;;;9.95;2.35;;;23.10;55.60;;;;;;10448995;28;20044;-24
2023/05/23 12:26:48;;;;;;;7.80;1.92;;;22.80;54.80;;;;;;10453624;28;20120;-24
2023/05/23 12:31:51;;;;;;;8.48;2.17;;;23.50;57.70;;;;;;10460602;28;20461;-24
2023/05/23 12:36:57;;;;;;;10.32;1.88;;;22.30;60.20;;;;;;10452356;28;20432;-24
2023/05/23 12:42:08;;;;;;;11.57;2.42;;;22.60;59.00;;;;;;10459028;28;20044;-25
2023/05/23 12:47:10;;;;;;;9.02;2.13;;;22.60;53.50;;;;;;10466913;28;20044;-24
2023/05/23 12:52:13;;;;;;;13.98;2.83;;;23.20;57.20;;;;;;10451387;28;20040;-24
2023/05/23 12:57:15;;;;;;;6.63;1.70;;;22.60;51.60;;;;;;10450580;28;20159;-24
2023/05/23 13:02:17;;;;;;;8.07;2.20;;;23.40;54.00;;;;;;10448048;28;20039;-23
2023/05/23 13:07:20;;;;;;;7.13;1.80;;;23.30;52.60;;;;;;10454613;28;20045;-24
2023/05/23 13:12:22;;;;;;;9.55;1.85;;;23.00;57.60;;;;;;10457698;28;20076;-23
2023/05/23 13:17:24;;;;;;;;;;;23.20;56.30;;;;;;10455979;28;20080;-24
2023/05/23 13:22:28;;;;;;;4.67;1.57;;;23.40;55.40;;;;;;10450723;28;20000;-25
2023/05/23 13:27:31;;;;;;;4.40;1.35;;;24.20;55.60;;;;;;10440926;28;20489;-24
2023/05/23 13:32:32;;;;;;;9.95;1.70;;;23.60;56.80;;;;;;10454250;28;20461;-25
2023/05/23 13:37:36;;;;;;;13.00;2.33;;;23.80;55.50;;;;;;10440016;28;20525;-24
2023/05/23 13:42:37;;;;;;;10.68;1.83;;;23.90;56.40;;;;;;10451245;28;20049;-25
2023/05/23 13:47:40;;;;;;;;;;;23.70;55.60;;;;;;10442918;28;20061;-24
2023/05/23 13:52:43;;;;;;;4.30;1.55;;;22.70;53.20;;;;;;10448428;28;19966;-24
2023/05/23 13:57:45;;;;;;;7.25;1.55;;;24.00;53.90;;;;;;10442307;28;20040;-23
2023/05/23 14:02:47;;;;;;;11.75;3.03;;;23.90;54.90;;;;;;10442049;28;20056;-23
2023/05/23 14:07:50;;;;;;;6.55;1.50;;;22.90;51.60;;;;;;10440568;28;20135;-24
2023/05/23 14:12:52;;;;;;;9.75;2.33;;;23.90;55.40;;;;;;10436036;28;20050;-24
2023/05/23 14:17:55;;;;;;;8.85;1.88;;;23.30;49.00;;;;;;10438940;28;20147;-24
2023/05/23 14:22:58;;;;;;;5.63;1.67;;;24.30;56.10;;;;;;10449903;28;20044;-24
2023/05/23 14:28:00;;;;;;;6.28;1.80;;;24.70;53.30;;;;;;10452942;28;20217;-25
2023/05/23 14:33:01;;;;;;;;;;;24.90;54.80;;;;;;10445677;28;20135;-24
2023/05/23 14:38:04;;;;;;;4.53;1.45;;;24.30;56.30;;;;;;10438861;28;19952;-24
2023/05/23 14:43:06;;;;;;;5.85;1.80;;;24.00;58.20;;;;;;10444585;28;20131;-24
2023/05/23 14:48:10;;;;;;;11.75;1.95;;;25.00;57.30;;;;;;10453524;28;20155;-24
2023/05/23 14:53:13;;;;;;;6.05;2.03;;;23.90;57.20;;;;;;10441655;28;20136;-25
2023/05/23 14:58:15;;;;;;;7.30;2.28;;;24.20;57.90;;;;;;10439811;28;20037;-24
2023/05/23 15:03:17;;;;;;;;;;;24.30;54.80;;;;;;10445179;28;20132;-23
2023/05/23 15:08:20;;;;;;;10.00;4.35;;;25.10;56.20;;;;;;10436903;28;19933;-23
2023/05/23 15:13:22;;;;;;;5.65;2.50;;;25.60;57.50;;;;;;10442254;28;20136;-23
2023/05/23 15:18:23;;;;;;;7.65;2.20;;;25.70;56.50;;;;;;10442272;28;20051;-23
2023/05/23 15:23:26;;;;;;;;;;;25.20;55.50;;;;;;10437992;28;20080;-24
2023/05/23 15:28:28;;;;;;;7.70;2.92;;;25.90;57.10;;;;;;10443488;28;20433;-23
2023/05/23 15:33:30;;;;;;;9.50;2.78;;;25.80;58.50;;;;;;10456724;28;20561;-23
2023/05/23 15:38:33;;;;;;;6.30;3.00;;;25.70;57.10;;;;;;10449137;28;20155;-23
2023/05/23 15:43:35;;;;;;;7.20;2.60;;;26.10;56.00;;;;;;10449287;28;20131;-23
2023/05/23 15:48:37;;;;;;;7.18;2.28;;;26.10;55.90;;;;;;10445877;28;20125;-21
2023/05/23 15:53:41;;;;;;;;;;;26.00;56.00;;;;;;10443908;28;20153;-24
2023/05/23 15:58:42;;;;;;;7.57;1.98;;;26.60;54.10;;;;;;10444402;28;20023;-25
2023/05/23 16:03:44;;;;;;;6.78;1.63;;;25.60;53.50;;;;;;10442347;28;20080;-24
2023/05/23 16:08:47;;;;;;;3.97;1.55;;;26.50;53.70;;;;;;10436181;28;20036;-24
2023/05/23 16:13:49;;;;;;;4.18;1.40;;;26.50;55.80;;;;;;10439827;28;20059;-25
2023/05/23 16:18:51;;;;;;;3.42;1.20;;;26.80;53.30;;;;;;10443896;28;20069;-25
2023/05/23 16:23:54;;;;;;;5.72;1.90;;;26.90;52.60;;;;;;10439912;28;20156;-24
2023/05/23 16:28:56;;;;;;;9.00;1.80;;;26.90;53.60;;;;;;10445229;28;20662;-24
2023/05/23 16:33:58;;;;;;;5.35;1.27;;;26.50;55.90;;;;;;10457461;28;20049;-24
2023/05/23 16:39:01;;;;;;;5.63;1.58;;;26.20;54.00;;;;;;10453714;28;20490;-24
2023/05/23 16:44:03;;;;;;;5.80;1.05;;;26.50;51.50;;;;;;10432816;28;20144;-24
2023/05/23 16:49:05;;;;;;;6.50;1.65;;;26.70;51.60;;;;;;10441901;28;20146;-24
2023/05/23 16:54:08;;;;;;;3.53;1.23;;;27.00;55.50;;;;;;10435655;28;20500;-24
2023/05/23 16:59:10;;;;;;;4.50;1.20;;;27.10;55.80;;;;;;10457861;28;20406;-24
2023/05/23 17:04:12;;;;;;;11.20;1.98;;;27.30;54.80;;;;;;10454620;28;20140;-23
2023/05/23 17:09:16;;;;;;;10.07;1.83;;;27.60;55.20;;;;;;10458151;28;20072;-33
2023/05/23 17:14:18;;;;;;;5.90;1.20;;;27.40;54.20;;;;;;10444137;28;20084;-23
2023/05/23 17:19:20;;;;;;;7.55;1.55;;;26.60;55.90;;;;;;10445631;28;20083;-23
2023/05/23 17:24:23;;;;;;;4.35;1.70;;;27.00;55.20;;;;;;10444431;28;20129;-24
2023/05/23 17:29:25;;;;;;;5.18;1.60;;;27.00;54.80;;;;;;10452864;28;20130;-24
2023/05/23 17:34:27;;;;;;;2.25;0.95;;;27.40;54.40;;;;;;10445762;28;20053;-24
2023/05/23 17:39:31;;;;;;;7.43;1.20;;;27.70;54.70;;;;;;10461725;28;20076;-24
2023/05/23 17:44:33;;;;;;;3.78;1.00;;;27.60;53.50;;;;;;10443102;28;20781;-24
2023/05/23 17:49:37;;;;;;;6.70;1.08;;;27.70;55.30;;;;;;10446104;28;20516;-24
2023/05/23 17:54:41;;;;;;;4.32;1.30;;;27.90;54.30;;;;;;10444915;28;20052;-22
2023/05/23 17:59:42;;;;;;;6.05;1.88;;;27.10;56.10;;;;;;10438958;28;20148;-27
2023/05/23 18:04:45;;;;;;;4.28;1.30;;;27.90;54.60;;;;;;10446175;28;20482;-24
2023/05/23 18:09:49;;;;;;;4.35;1.30;;;27.30;56.60;;;;;;10435912;28;20049;-24
2023/05/23 18:14:51;;;;;;;5.82;1.70;;;27.90;55.40;;;;;;10441153;28;20059;-24
2023/05/23 18:19:53;;;;;;;11.57;1.52;;;27.60;54.60;;;;;;10459288;28;20044;-24
2023/05/23 18:24:56;;;;;;;9.70;1.73;;;28.00;55.90;;;;;;10434971;28;20048;-25
2023/05/23 18:29:58;;;;;;;18.33;2.30;;;27.40;55.70;;;;;;10448856;28;20055;-24
2023/05/23 18:35:00;;;;;;;18.08;2.28;;;27.80;55.70;;;;;;10446392;28;20474;-24
2023/05/23 18:40:03;;;;;;;16.17;2.80;;;27.50;56.10;;;;;;10444587;28;20132;-24
2023/05/23 18:45:06;;;;;;;11.43;3.17;;;27.70;55.70;;;;;;10446605;28;20048;-24
2023/05/23 18:50:09;;;;;;;16.40;2.35;;;27.50;56.20;;;;;;10441399;28;20041;-22
2023/05/23 18:55:12;;;;;;;29.58;2.80;;;27.70;55.60;;;;;;10442917;28;20155;-24
2023/05/23 19:00:14;;;;;;;14.70;3.63;;;27.60;55.90;;;;;;10443932;28;20140;-24
2023/05/23 19:05:16;;;;;;;23.80;3.85;;;27.40;54.80;;;;;;10443260;28;20445;-26
2023/05/23 19:10:19;;;;;;;9.68;2.30;;;27.30;55.10;;;;;;10442807;28;20049;-25
2023/05/23 19:15:21;;;;;;;9.32;2.10;;;27.30;54.30;;;;;;10446336;28;20143;-23
2023/05/23 19:20:24;;;;;;;10.15;2.17;;;27.30;54.00;;;;;;10441100;28;20138;-24
2023/05/23 19:25:27;;;;;;;8.20;1.88;;;27.30;53.60;;;;;;10443202;28;20135;-24
2023/05/23 19:30:29;;;;;;;12.45;1.98;;;27.20;53.50;;;;;;10435352;28;20064;-24
2023/05/23 19:35:31;;;;;;;7.55;1.83;;;27.20;53.50;;;;;;10438305;28;20057;-24
2023/05/23 19:40:34;;;;;;;8.95;1.83;;;27.00;53.30;;;;;;10444532;28;20296;-24
2023/05/23 19:45:36;;;;;;;8.27;1.73;;;27.00;53.20;;;;;;10444434;28;20045;-23
2023/05/23 19:50:39;;;;;;;8.52;1.73;;;26.90;53.10;;;;;;10440187;28;20409;-23
2023/05/23 19:55:42;;;;;;;5.90;1.42;;;26.70;53.00;;;;;;10444258;28;20049;-24
2023/05/23 20:00:45;;;;;;;4.05;1.33;;;26.70;52.80;;;;;;10453202;28;20129;-24
2023/05/23 20:05:46;;;;;;;5.60;1.80;;;26.70;52.70;;;;;;10461346;28;20048;-24
2023/05/23 20:10:50;;;;;;;4.65;1.25;;;26.50;52.80;;;;;;10456515;28;20053;-24
2023/05/23 20:15:52;;;;;;;5.43;1.40;;;26.50;52.60;;;;;;10457036;28;20094;-24
2023/05/23 20:20:53;;;;;;;7.63;1.75;;;26.50;52.70;;;;;;10437559;28;20099;-24
2023/05/23 20:25:57;;;;;;;8.75;2.15;;;26.40;52.60;;;;;;10446506;28;20037;-24
2023/05/23 20:30:59;;;;;;;10.07;1.77;;;26.30;52.70;;;;;;10446093;28;20044;-24
2023/05/23 20:36:02;;;;;;;5.70;2.05;;;26.30;52.70;;;;;;10447792;28;20139;-22
2023/05/23 20:41:06;;;;;;;4.00;1.80;;;26.20;53.40;;;;;;10434404;28;20110;-23
2023/05/23 20:46:08;;;;;;;4.50;1.95;;;26.20;52.80;;;;;;10446557;28;20482;-23
2023/05/23 20:51:10;;;;;;;4.50;1.38;;;26.10;52.90;;;;;;10448868;28;20083;-24
2023/05/23 20:56:14;;;;;;;7.93;2.08;;;25.90;52.40;;;;;;10444242;28;20043;-23
2023/05/23 21:01:16;;;;;;;6.10;1.67;;;25.90;52.60;;;;;;10448095;28;20057;-24
2023/05/23 21:06:18;;;;;;;5.65;1.73;;;25.90;52.60;;;;;;10454185;28;20106;-24
2023/05/23 21:11:22;;;;;;;7.18;1.80;;;25.90;52.70;;;;;;10451308;28;20095;-23
2023/05/23 21:16:23;;;;;;;6.28;1.40;;;25.80;52.80;;;;;;10456735;28;20053;-24
2023/05/23 21:21:25;;;;;;;;;;;25.70;53.40;;;;;;10453013;28;20049;-23
2023/05/23 21:26:28;;;;;;;5.93;1.48;;;25.70;52.80;;;;;;10449449;28;20074;-24
2023/05/23 21:31:30;;;;;;;6.35;1.77;;;25.60;52.80;;;;;;10455634;28;20139;-24
2023/05/23 21:36:32;;;;;;;;;;;25.50;52.90;;;;;;10447612;28;20076;-24
2023/05/23 21:41:35;;;;;;;6.03;1.80;;;25.50;52.90;;;;;;10451147;28;19927;-24
2023/05/23 21:46:36;;;;;;;6.15;2.40;;;25.40;52.80;;;;;;10437623;28;20048;-24
2023/05/23 21:51:38;;;;;;;8.60;2.70;;;25.30;52.80;;;;;;10442294;28;20045;-24
2023/05/23 21:56:42;;;;;;;6.88;2.92;;;25.30;53.00;;;;;;10449402;28;20337;-23
2023/05/23 22:01:43;;;;;;;7.78;3.30;;;25.20;53.00;;;;;;10452526;28;20068;-24
2023/05/23 22:06:45;;;;;;;;;;;25.10;53.00;;;;;;10456450;28;20132;-24
2023/05/23 22:11:48;;;;;;;10.80;4.07;;;25.00;52.80;;;;;;10445984;28;19928;-24
2023/05/23 22:16:50;;;;;;;8.32;3.17;;;25.00;53.00;;;;;;10456953;28;20045;-21
2023/05/23 22:21:52;;;;;;;9.80;3.90;;;24.90;52.90;;;;;;10443602;28;20152;-25
2023/05/23 22:26:57;;;;;;;9.77;3.50;;;24.90;52.70;;;;;;10441672;28;20132;-24
2023/05/23 22:31:58;;;;;;;11.48;5.32;;;24.80;52.90;;;;;;10437913;28;20091;-24
2023/05/23 22:37:01;;;;;;;;;;;24.70;53.00;;;;;;10444887;28;20183;-24
2023/05/23 22:42:04;;;;;;;9.93;3.45;;;24.70;53.40;;;;;;10451427;28;20488;-24
2023/05/23 22:47:08;;;;;;;7.85;3.97;;;24.60;52.90;;;;;;10442275;28;20033;-24
2023/05/23 22:52:10;;;;;;;9.45;4.15;;;24.50;52.70;;;;;;10468825;28;20048;-24
2023/05/23 22:57:13;;;;;;;;;;;24.50;52.90;;;;;;10447024;28;20041;-23
2023/05/23 23:02:15;;;;;;;10.98;4.85;;;24.40;52.80;;;;;;10443885;28;20341;-24
2023/05/23 23:07:17;;;;;;;10.00;4.88;;;24.30;53.20;;;;;;10448892;28;20046;-23
2023/05/23 23:12:20;;;;;;;11.98;5.18;;;24.30;53.20;;;;;;10442513;28;20760;-24
2023/05/23 23:17:22;;;;;;;8.23;4.78;;;24.20;53.50;;;;;;10452279;28;20080;-24
2023/05/23 23:22:23;;;;;;;;;;;24.10;53.00;;;;;;10448787;28;20041;-24
2023/05/23 23:27:30;;;;;;;11.07;4.70;;;24.00;53.40;;;;;;10449981;28;19932;-25
2023/05/23 23:32:32;;;;;;;11.00;5.05;;;23.90;53.30;;;;;;10456523;28;20127;-24
2023/05/23 23:37:34;;;;;;;11.93;5.60;;;23.80;53.40;;;;;;10433988;28;20141;-24
2023/05/23 23:42:37;;;;;;;10.32;5.00;;;23.80;53.40;;;;;;10438994;28;20048;-25
2023/05/23 23:47:40;;;;;;;9.75;4.75;;;23.80;53.10;;;;;;10453499;28;20485;-24
2023/05/23 23:52:42;;;;;;;11.57;6.05;;;23.70;53.80;;;;;;10451172;28;20051;-24
2023/05/23 23:57:46;;;;;;;11.20;5.07;;;23.60;53.40;;;;;;10450110;28;20045;-24
